Sign in to follow this  
carlito777

xEnviro: LOWW to EDDN

Recommended Posts

I also took the plunge and bought xEnviro. All I can say is that it is absolutely amazing. I only did one quick flight from LOWW to EDDN, but I have rarely had such an immersive flight. Just great.

 

aGOwpJc.jpg

4lzjA77.jpg

dKfDYrF.jpg

6rK3vV4.jpg

ig7v9xv.jpg
 

  • Upvote 2

Share this post


Link to post
Share on other sites
Help AVSIM continue to serve you!
Please donate today!

I also took the plunge and bought xEnviro. All I can say is that it is absolutely amazing. I only did one quick flight from LOWW to EDDN, but I have rarely had such an immersive flight. Just great.

 

 

Nice shots!  

You are running 21:9 as well? Just took the plunge and ordered a 21:9 monitor.

Share this post


Link to post
Share on other sites

Nice shots!  

You are running 21:9 as well? Just took the plunge and ordered a 21:9 monitor.

No. I have a triple monitor setup. But X-Plane doesn't grab the full width when I take screenshots. So it looks like 21:9. But I can imagine that 21:9 is great as well.

Share this post


Link to post
Share on other sites

Could any of you pick some shots from a region reporting Cb or TCu ?

 

Preferably from above 6000', looking towards the biggest cloud formations available, and, of course, above any OVC or BKN layer :-)

 

i.e.:

 

FABM 101013Z 03007KT 9999 TS SCT030 FEW040TCU FEW050CB 23/14 Q1021

FKKD 101100Z 27004KT 9999 FEW008 BKN016TCU FEW020CB 31/25 Q1010 TEMPO TS

 

And Yes! Beautiful shots indeed!

Share this post


Link to post
Share on other sites

Create an account or sign in to comment

You need to be a member in order to leave a comment

Create an account

Sign up for a new account in our community. It's easy!

Register a new account

Sign in

Already have an account? Sign in here.

Sign In Now
Sign in to follow this